Weather forecast for Chervonyi Kut (Червоный Кут)

Ukraine, 146 m
N47.393, E30.455


Sounding

Red line — air temperature ˚C.
Blue line — thermal bubble temperature ˚C.
Green line — dew point temperature ˚C.
Wind speed is in meters per second.

Table forecast

GFS 0.25˚ model

temp. wind gust humid. clouds prec. press. hpbl
Wed21 00:00 -4 32.0 nne 4 6 92 58 0.0 1025 112
03:00 -5 40.0 ne 3 4 89 43 0.0 1026 78
06:00 -6 46.0 ne 3 4 91 64 0.0 1025 86
09:00 -5 47.0 ne 4 7 92 73 0.0 1025 169
12:00 -2 57.0 ene 4 7 90 88 0.0 1025 328
15:00 -0 44.0 ne 5 8 89 90 0.0 1024 381
18:00 -1 42.0 ne 5 9 92 100 0.0 1024 310
21:00 -3 40.0 ne 5 9 94 100 0.0 1025 263
 
Thu22 00:00 -5 29.0 nne 4 8 93 99 0.0 1026 180
03:00 -7 19.0 nne 4 6 93 96 0.0 1026 101
06:00 -9 12.0 nne 4 4 93 72 0.0 1026 86
09:00 -9 8.0 n 3 4 94 37 0.0 1027 87
12:00 -4 5.0 n 4 5 92 0 0.0 1027 243
15:00 -3 358.0 n 4 6 92 0 0.0 1026 268
18:00 -6 351.0 n 3 4 92 0 0.0 1027 45
21:00 -7 347.0 nnw 3 3 92 0 0.0 1027 36
 
Fri23 00:00 -8 337.0 nnw 3 4 91 0 0.0 1027 35
03:00 -8 332.0 nnw 3 4 89 0 0.0 1028 44
06:00 -8 333.0 nnw 3 4 88 0 0.0 1028 53
09:00 -8 339.0 nnw 3 4 88 0 0.0 1029 63
12:00 -4 354.0 n 3 5 87 0 0.0 1030 246
15:00 -3 360.0 n 3 5 91 0 0.0 1030 263
18:00 -7 23.0 nne 3 3 94 0 0.0 1031 27
21:00 -9 44.0 ne 2 3 96 1 0.0 1032 21
 
Sat24 00:00 -7 82.0 e 1 1 97 49 0.0 1032 21
03:00 -8 138.0 se 1 1 97 52 0.0 1032 21
06:00 -9 146.0 se 1 2 96 2 0.0 1030 21
09:00 -8 150.0 sse 2 3 93 1 0.0 1029 21
12:00 -2 157.0 sse 3 5 90 0 0.0 1028 247
15:00 1 146.0 se 2 3 95 0 0.0 1025 86
18:00 0 146.0 se 3 4 89 0 0.0 1024 44
21:00 -1 162.0 sse 3 4 90 8 0.0 1023 50
 
Sun25 00:00 -1 178.0 s 3 4 92 4 0.0 1022 44
03:00 -1 188.0 s 3 4 92 10 0.0 1020 70
06:00 -1 186.0 s 3 4 92 52 0.0 1018 67
09:00 1 180.0 s 4 9 93 63 0.0 1018 193
12:00 3 193.0 ssw 4 9 100 66 0.0 1017 234
15:00 3 205.0 ssw 3 3 100 54 0.0 1015 52
18:00 2 196.0 ssw 2 2 88 33 0.0 1014 22
21:00 2 201.0 ssw 2 2 89 35 0.0 1014 22
 

0.013 s